createdAt,value
2023-02-24T00:00:31.187Z,6.59
2023-02-24T00:03:38.795Z,6.62
2023-02-24T00:06:45.698Z,6.63
2023-02-24T00:09:52.172Z,6.57
2023-02-24T00:12:58.411Z,6.53
2023-02-24T00:16:06.369Z,6.54
2023-02-24T00:19:14.987Z,6.52
2023-02-24T00:22:21.270Z,6.52
2023-02-24T00:25:25.774Z,6.52
2023-02-24T00:28:32.682Z,6.48
2023-02-24T00:31:42.271Z,6.45
2023-02-24T00:34:49.403Z,6.41
2023-02-24T00:37:55.719Z,6.36
2023-02-24T00:41:00.680Z,6.31
2023-02-24T00:44:09.874Z,6.26
2023-02-24T00:47:17.473Z,6.28
2023-02-24T00:50:24.979Z,6.28
2023-02-24T00:53:31.889Z,6.27
2023-02-24T00:56:38.259Z,6.27
2023-02-24T00:59:47.811Z,6.28
2023-02-24T01:02:54.108Z,6.32
2023-02-24T01:06:04.312Z,6.39
2023-02-24T01:09:13.406Z,6.45
2023-02-24T01:12:33.492Z,6.50
2023-02-24T01:15:39.821Z,6.56
2023-02-24T01:18:44.340Z,6.63
2023-02-24T01:21:55.211Z,6.69
2023-02-24T01:25:01.392Z,6.78
2023-02-24T01:28:11.255Z,6.85
2023-02-24T01:31:21.099Z,6.91
2023-02-24T01:34:28.499Z,6.97
2023-02-24T01:37:34.804Z,7.01
2023-02-24T01:40:39.492Z,7.03
2023-02-24T01:44:03.583Z,7.00
2023-02-24T01:47:10.345Z,6.97
2023-02-24T01:50:17.909Z,6.90
2023-02-24T01:53:24.245Z,6.86
2023-02-24T01:56:30.017Z,6.85
2023-02-24T01:59:36.722Z,6.83
2023-02-24T02:02:47.905Z,6.82
2023-02-24T02:05:59.099Z,6.84
2023-02-24T02:09:08.085Z,6.85
2023-02-24T02:12:15.358Z,6.91
2023-02-24T02:15:22.011Z,6.97
2023-02-24T02:18:35.464Z,7.02
2023-02-24T02:22:03.937Z,7.05
2023-02-24T02:25:19.697Z,7.08
2023-02-24T02:29:04.143Z,7.11
2023-02-24T02:32:39.208Z,7.13
2023-02-24T02:35:51.967Z,7.14
2023-02-24T02:39:06.141Z,7.16
2023-02-24T02:42:24.425Z,7.15
2023-02-24T02:45:39.718Z,7.14
2023-02-24T02:48:54.014Z,7.14
2023-02-24T02:52:10.596Z,7.15
2023-02-24T02:55:24.096Z,7.11
2023-02-24T02:58:35.430Z,7.08
2023-02-24T03:01:46.545Z,7.06
2023-02-24T03:04:57.416Z,7.05
2023-02-24T03:08:11.565Z,7.02
2023-02-24T03:11:21.577Z,7.00
2023-02-24T03:14:30.920Z,7.02
2023-02-24T03:17:42.101Z,7.04
2023-02-24T03:20:52.485Z,7.04
2023-02-24T03:23:59.005Z,7.04
2023-02-24T03:27:13.198Z,7.06
2023-02-24T03:30:23.324Z,7.08
2023-02-24T03:33:34.086Z,7.10
2023-02-24T03:36:40.592Z,7.12
2023-02-24T03:39:51.051Z,7.12
2023-02-24T03:43:05.833Z,7.12
2023-02-24T03:46:12.400Z,7.12
2023-02-24T03:49:18.784Z,7.14
2023-02-24T03:52:29.249Z,7.16
2023-02-24T03:55:47.560Z,7.18
2023-02-24T03:59:07.954Z,7.19
2023-02-24T04:02:22.108Z,7.21
2023-02-24T04:05:32.885Z,7.23
2023-02-24T04:08:47.398Z,7.20
2023-02-24T04:12:05.852Z,7.11
2023-02-24T04:15:16.839Z,7.05
2023-02-24T04:18:27.776Z,7.02
2023-02-24T04:21:35.340Z,6.97
2023-02-24T04:24:44.492Z,6.94
2023-02-24T04:27:52.789Z,6.92
2023-02-24T04:31:06.325Z,6.90
2023-02-24T04:34:12.618Z,6.88
2023-02-24T04:37:23.241Z,6.88
2023-02-24T04:40:29.622Z,6.90
2023-02-24T04:43:36.186Z,6.91
2023-02-24T04:46:42.521Z,6.90
2023-02-24T04:49:47.141Z,6.89
2023-02-24T04:52:55.700Z,6.86
2023-02-24T04:56:09.318Z,6.83
2023-02-24T04:59:15.891Z,6.81
2023-02-24T05:02:22.163Z,6.81
2023-02-24T05:05:28.884Z,6.78
2023-02-24T05:08:36.267Z,6.75
2023-02-24T05:11:42.965Z,6.73
2023-02-24T05:14:50.025Z,6.72
2023-02-24T05:17:57.420Z,6.72
2023-02-24T05:21:26.949Z,6.76
2023-02-24T05:24:34.741Z,6.74
2023-02-24T05:27:41.122Z,6.73
2023-02-24T05:30:45.690Z,6.71
2023-02-24T05:33:55.697Z,6.69
2023-02-24T05:37:04.588Z,6.69
2023-02-24T05:40:14.879Z,6.70
2023-02-24T05:43:21.153Z,6.72
2023-02-24T05:46:28.612Z,6.74
2023-02-24T05:49:38.926Z,6.77
2023-02-24T05:52:45.859Z,6.78
2023-02-24T05:55:52.105Z,6.78
2023-02-24T05:59:03.129Z,6.77
2023-02-24T06:02:12.513Z,6.75
2023-02-24T06:05:26.827Z,6.74
2023-02-24T06:08:42.409Z,6.76
2023-02-24T06:11:48.814Z,6.76
2023-02-24T06:14:53.676Z,6.76
2023-02-24T06:18:01.115Z,6.78
2023-02-24T06:21:08.504Z,6.82
2023-02-24T06:24:18.068Z,6.84
2023-02-24T06:27:25.368Z,6.84
2023-02-24T06:30:32.861Z,6.86
2023-02-24T06:33:39.213Z,6.88
2023-02-24T06:36:43.909Z,6.89
2023-02-24T06:39:50.115Z,6.90
2023-02-24T06:42:57.291Z,6.93
2023-02-24T06:46:06.305Z,6.95
2023-02-24T06:49:12.777Z,6.97
2023-02-24T06:52:19.810Z,7.00
2023-02-24T06:55:29.027Z,7.00
2023-02-24T06:58:35.372Z,7.03
2023-02-24T07:01:45.469Z,7.04
2023-02-24T07:04:55.482Z,7.04
2023-02-24T07:08:02.045Z,7.05
2023-02-24T07:11:08.326Z,7.03
2023-02-24T07:14:13.487Z,7.02
2023-02-24T07:17:21.030Z,7.03
2023-02-24T07:20:27.339Z,7.04
2023-02-24T07:23:32.404Z,7.05
2023-02-24T07:26:41.810Z,7.05
2023-02-24T07:29:51.786Z,7.08
2023-02-24T07:32:58.990Z,7.10
2023-02-24T07:36:08.688Z,7.13
2023-02-24T07:39:15.062Z,7.14
2023-02-24T07:42:19.593Z,7.15
2023-02-24T07:45:26.178Z,7.17
2023-02-24T07:48:32.719Z,7.19
2023-02-24T07:51:39.201Z,7.21
2023-02-24T07:54:45.489Z,7.24
2023-02-24T07:57:51.901Z,7.28
2023-02-24T08:01:08.766Z,7.33
2023-02-24T08:04:16.028Z,7.40
2023-02-24T08:07:25.709Z,7.45
2023-02-24T08:10:37.011Z,7.48
2023-02-24T08:13:45.044Z,7.52
2023-02-24T08:16:52.891Z,7.54
2023-02-24T08:20:22.110Z,7.58
2023-02-24T08:23:28.367Z,7.62
2023-02-24T08:26:32.943Z,7.67
2023-02-24T08:29:58.031Z,7.72
2023-02-24T08:33:04.304Z,7.77
2023-02-24T08:36:12.215Z,7.83
2023-02-24T08:39:19.368Z,7.89
2023-02-24T08:42:34.753Z,7.94
2023-02-24T08:45:41.058Z,8.03
2023-02-24T08:48:46.698Z,8.12
2023-02-24T08:51:54.031Z,8.18
2023-02-24T08:55:01.872Z,8.26
2023-02-24T08:58:11.289Z,8.35
2023-02-24T09:01:24.506Z,8.47
2023-02-24T09:04:30.959Z,8.57
2023-02-24T09:07:40.690Z,8.63
2023-02-24T09:10:46.982Z,8.64
2023-02-24T09:13:58.300Z,8.63
2023-02-24T09:17:07.165Z,8.62
2023-02-24T09:20:37.746Z,8.61
2023-02-24T09:23:47.287Z,8.60
2023-02-24T09:26:58.789Z,8.62
2023-02-24T09:30:08.249Z,8.64
2023-02-24T09:33:21.379Z,8.67
2023-02-24T09:36:30.250Z,8.74
2023-02-24T09:39:51.697Z,8.85
2023-02-24T09:42:58.465Z,8.97
2023-02-24T09:46:14.999Z,9.05
2023-02-24T09:49:24.730Z,9.14
2023-02-24T09:52:42.164Z,9.26
2023-02-24T09:56:05.141Z,9.37
2023-02-24T09:59:26.494Z,9.47
2023-02-24T10:02:45.118Z,9.56
2023-02-24T10:06:00.040Z,9.62
2023-02-24T10:09:15.567Z,9.71
2023-02-24T10:12:40.466Z,9.80
2023-02-24T10:16:06.218Z,9.85
2023-02-24T10:19:25.687Z,9.90
2023-02-24T10:22:50.846Z,9.97
2023-02-24T10:26:06.732Z,10.10
2023-02-24T10:29:22.717Z,10.26
2023-02-24T10:32:38.438Z,10.40
2023-02-24T10:35:44.777Z,10.49
2023-02-24T10:38:56.202Z,10.55
2023-02-24T10:42:16.933Z,10.61
2023-02-24T10:45:27.490Z,10.63
2023-02-24T10:48:41.794Z,10.66
2023-02-24T10:52:33.550Z,10.67
2023-02-24T10:56:15.015Z,10.62
2023-02-24T10:59:41.373Z,10.52
2023-02-24T11:03:19.452Z,10.44
2023-02-24T11:06:55.750Z,10.42
2023-02-24T11:10:14.061Z,10.48
2023-02-24T11:13:38.802Z,10.60
2023-02-24T11:17:05.851Z,10.76
2023-02-24T11:20:24.944Z,10.95
2023-02-24T11:23:35.028Z,11.06
2023-02-24T11:26:43.613Z,11.09
2023-02-24T11:30:08.382Z,11.13
2023-02-24T11:33:30.262Z,11.17
2023-02-24T11:36:48.257Z,11.28
2023-02-24T11:40:01.924Z,11.33
2023-02-24T11:43:13.891Z,11.32
2023-02-24T11:46:27.375Z,11.32
2023-02-24T11:49:38.636Z,11.35
2023-02-24T11:52:48.362Z,11.34
2023-02-24T11:55:59.882Z,11.29
2023-02-24T11:59:13.699Z,11.26
2023-02-24T12:02:31.114Z,11.26
2023-02-24T12:05:41.026Z,11.26
2023-02-24T12:08:52.754Z,11.22
2023-02-24T12:12:04.517Z,11.14
2023-02-24T12:15:20.426Z,11.07
2023-02-24T12:18:27.717Z,11.05
2023-02-24T12:21:37.979Z,11.05
2023-02-24T12:24:50.020Z,11.09
2023-02-24T12:28:11.320Z,11.24
2023-02-24T12:31:32.292Z,11.50
2023-02-24T12:34:50.901Z,11.78
2023-02-24T12:38:03.971Z,12.08
2023-02-24T12:41:32.247Z,12.25
2023-02-24T12:44:48.066Z,12.26
2023-02-24T12:48:06.115Z,12.32
2023-02-24T12:51:22.778Z,12.33
2023-02-24T12:54:37.706Z,12.33
2023-02-24T12:57:53.209Z,12.32
2023-02-24T13:01:10.378Z,12.18
2023-02-24T13:04:31.273Z,12.09
2023-02-24T13:07:53.160Z,11.99
2023-02-24T13:11:06.134Z,11.83
2023-02-24T13:14:22.549Z,11.61
2023-02-24T13:17:29.746Z,11.36
2023-02-24T13:20:38.798Z,11.16
2023-02-24T13:23:58.248Z,11.02
2023-02-24T13:27:25.064Z,10.87
2023-02-24T13:30:39.570Z,10.70
2023-02-24T13:33:48.448Z,10.63
2023-02-24T13:36:54.672Z,10.63
2023-02-24T13:39:59.228Z,10.73
2023-02-24T13:43:08.215Z,10.90
2023-02-24T13:46:21.165Z,11.08
2023-02-24T13:49:37.077Z,11.27
2023-02-24T13:53:02.049Z,11.46
2023-02-24T13:56:27.702Z,11.57
2023-02-24T14:00:01.752Z,11.58
2023-02-24T14:03:17.677Z,11.55
2023-02-24T14:06:27.510Z,11.51
2023-02-24T14:09:41.689Z,11.46
2023-02-24T14:12:49.608Z,11.36
2023-02-24T14:15:56.404Z,11.20
2023-02-24T14:19:04.604Z,11.06
2023-02-24T14:22:21.747Z,10.97
2023-02-24T14:25:31.320Z,10.92
2023-02-24T14:28:39.786Z,10.90
2023-02-24T14:31:51.250Z,10.84
2023-02-24T14:34:58.146Z,10.79
2023-02-24T14:38:05.266Z,10.76
2023-02-24T14:41:22.466Z,10.77
2023-02-24T14:44:30.101Z,10.75
2023-02-24T14:47:37.945Z,10.70
2023-02-24T14:50:44.369Z,10.68
2023-02-24T14:53:53.464Z,10.66
2023-02-24T14:57:02.012Z,10.64
2023-02-24T15:00:17.531Z,10.61
2023-02-24T15:03:29.449Z,10.54
2023-02-24T15:06:40.997Z,10.50
2023-02-24T15:09:49.148Z,10.44
2023-02-24T15:13:00.756Z,10.38
2023-02-24T15:16:15.786Z,10.34
2023-02-24T15:19:29.160Z,10.31
2023-02-24T15:22:39.519Z,10.28
2023-02-24T15:25:47.937Z,10.24
2023-02-24T15:29:01.168Z,10.21
2023-02-24T15:32:13.134Z,10.19
2023-02-24T15:35:26.218Z,10.17
2023-02-24T15:38:37.910Z,10.15
2023-02-24T15:41:47.127Z,10.11
2023-02-24T15:44:56.754Z,10.07
2023-02-24T15:48:05.119Z,10.04
2023-02-24T15:51:19.569Z,10.02
2023-02-24T15:54:31.889Z,9.98
2023-02-24T15:57:38.341Z,9.94
2023-02-24T16:00:45.648Z,9.87
2023-02-24T16:03:51.921Z,9.82
2023-02-24T16:06:58.541Z,9.77
2023-02-24T16:10:05.618Z,9.72
2023-02-24T16:13:20.502Z,9.66
2023-02-24T16:16:27.717Z,9.61
2023-02-24T16:19:34.020Z,9.56
2023-02-24T16:22:40.235Z,9.53
2023-02-24T16:25:45.722Z,9.51
2023-02-24T16:28:55.564Z,9.49
2023-02-24T16:32:01.943Z,9.49
2023-02-24T16:35:11.113Z,9.51
2023-02-24T16:38:19.288Z,9.51
2023-02-24T16:41:26.034Z,9.48
2023-02-24T16:44:32.293Z,9.45
2023-02-24T16:47:38.757Z,9.42
2023-02-24T16:50:45.940Z,9.40
2023-02-24T16:53:52.180Z,9.38
2023-02-24T16:56:56.769Z,9.35
2023-02-24T17:00:03.308Z,9.30
2023-02-24T17:03:16.437Z,9.27
2023-02-24T17:06:23.868Z,9.25
2023-02-24T17:09:33.395Z,9.23
2023-02-24T17:12:39.667Z,9.22
2023-02-24T17:15:46.070Z,9.21
2023-02-24T17:18:52.275Z,9.21
2023-02-24T17:21:56.781Z,9.19
2023-02-24T17:25:03.414Z,9.15
2023-02-24T17:28:11.707Z,9.11
2023-02-24T17:31:18.473Z,9.04
2023-02-24T17:34:24.881Z,8.97
2023-02-24T17:37:29.363Z,8.92
2023-02-24T17:40:35.698Z,8.87
2023-02-24T17:43:41.818Z,8.84
2023-02-24T17:46:48.114Z,8.81
2023-02-24T17:49:54.360Z,8.76
2023-02-24T17:53:00.703Z,8.70
2023-02-24T17:56:06.285Z,8.70
2023-02-24T17:59:12.404Z,8.68
2023-02-24T18:02:20.142Z,8.64
2023-02-24T18:05:26.370Z,8.59
2023-02-24T18:08:30.969Z,8.56
2023-02-24T18:11:37.194Z,8.49
2023-02-24T18:14:43.466Z,8.46
2023-02-24T18:17:48.152Z,8.42
2023-02-24T18:20:58.736Z,8.38
2023-02-24T18:24:05.438Z,8.35
2023-02-24T18:27:11.584Z,8.32
2023-02-24T18:30:18.918Z,8.31
2023-02-24T18:33:25.515Z,8.30
2023-02-24T18:36:32.129Z,8.27
2023-02-24T18:39:38.303Z,8.22
2023-02-24T18:42:43.911Z,8.20
2023-02-24T18:45:50.187Z,8.23
2023-02-24T18:48:54.743Z,8.26
2023-02-24T18:52:01.499Z,8.28
2023-02-24T18:55:09.092Z,8.32
2023-02-24T18:58:16.064Z,8.35
2023-02-24T19:01:24.199Z,8.37
2023-02-24T19:04:30.329Z,8.38
2023-02-24T19:07:36.662Z,8.42
2023-02-24T19:10:43.794Z,8.44
2023-02-24T19:13:50.385Z,8.47
2023-02-24T19:16:56.669Z,8.49
2023-02-24T19:20:01.146Z,8.49
2023-02-24T19:23:07.404Z,8.47
2023-02-24T19:26:17.794Z,8.45
2023-02-24T19:29:25.972Z,8.43
2023-02-24T19:32:33.430Z,8.40
2023-02-24T19:35:42.998Z,8.36
2023-02-24T19:38:49.257Z,8.30
2023-02-24T19:41:54.912Z,8.24
2023-02-24T19:45:01.089Z,8.16
2023-02-24T19:48:07.449Z,8.09
2023-02-24T19:51:16.114Z,8.08
2023-02-24T19:54:23.294Z,8.07
2023-02-24T19:57:29.673Z,8.02
2023-02-24T20:00:35.928Z,7.95
2023-02-24T20:03:41.173Z,7.90
2023-02-24T20:06:47.572Z,7.86
2023-02-24T20:09:54.778Z,7.85
2023-02-24T20:13:01.018Z,7.88
2023-02-24T20:16:12.951Z,7.92
2023-02-24T20:19:19.252Z,7.93
2023-02-24T20:22:23.793Z,7.95
2023-02-24T20:25:30.192Z,7.97
2023-02-24T20:28:36.540Z,7.98
2023-02-24T20:31:41.377Z,8.01
2023-02-24T20:34:47.793Z,8.06
2023-02-24T20:37:54.127Z,8.10
2023-02-24T20:41:00.331Z,8.13
2023-02-24T20:44:07.284Z,8.15
2023-02-24T20:47:13.665Z,8.20
2023-02-24T20:50:19.988Z,8.24
2023-02-24T20:53:26.202Z,8.27
2023-02-24T20:56:36.548Z,8.29
2023-02-24T20:59:49.230Z,8.32
2023-02-24T21:03:00.045Z,8.33
2023-02-24T21:06:10.160Z,8.35
2023-02-24T21:09:16.811Z,8.37
2023-02-24T21:12:23.025Z,8.38
2023-02-24T21:15:27.607Z,8.37
2023-02-24T21:18:34.893Z,8.36
2023-02-24T21:21:41.210Z,8.37
2023-02-24T21:24:45.724Z,8.39
2023-02-24T21:27:51.898Z,8.40
2023-02-24T21:30:56.535Z,8.40
2023-02-24T21:34:03.864Z,8.40
2023-02-24T21:37:10.167Z,8.40
2023-02-24T21:40:17.682Z,8.44
2023-02-24T21:43:24.426Z,8.45
2023-02-24T21:46:30.814Z,8.43
2023-02-24T21:49:37.895Z,8.35
2023-02-24T21:52:45.516Z,8.21
2023-02-24T21:55:51.881Z,8.10
2023-02-24T21:59:01.131Z,7.96
2023-02-24T22:02:07.374Z,7.90
2023-02-24T22:05:12.037Z,7.85
2023-02-24T22:08:18.392Z,7.81
2023-02-24T22:11:25.327Z,7.74
2023-02-24T22:14:31.591Z,7.69
2023-02-24T22:17:37.023Z,7.69
2023-02-24T22:20:43.315Z,7.63
2023-02-24T22:23:48.369Z,7.57
2023-02-24T22:26:54.570Z,7.51
2023-02-24T22:29:59.068Z,7.44
2023-02-24T22:33:05.297Z,7.43
2023-02-24T22:36:10.856Z,7.44
2023-02-24T22:39:17.631Z,7.46
2023-02-24T22:42:23.895Z,7.47
2023-02-24T22:45:28.396Z,7.47
2023-02-24T22:48:36.062Z,7.46
2023-02-24T22:51:42.522Z,7.43
2023-02-24T22:54:48.889Z,7.40
2023-02-24T22:57:53.495Z,7.37
2023-02-24T23:00:59.865Z,7.35
2023-02-24T23:04:07.559Z,7.31
2023-02-24T23:07:13.782Z,7.29
2023-02-24T23:10:20.408Z,7.24
2023-02-24T23:13:26.633Z,7.22
2023-02-24T23:16:35.295Z,7.18
2023-02-24T23:19:41.576Z,7.13
2023-02-24T23:22:46.577Z,7.11
2023-02-24T23:25:54.701Z,7.11
2023-02-24T23:29:00.956Z,7.11
2023-02-24T23:32:07.361Z,7.10
2023-02-24T23:35:14.308Z,7.12
2023-02-24T23:38:20.692Z,7.11
2023-02-24T23:41:25.222Z,7.12
2023-02-24T23:44:31.486Z,7.14
2023-02-24T23:47:36.117Z,7.15
2023-02-24T23:50:43.426Z,7.18
2023-02-24T23:53:50.901Z,7.19
2023-02-24T23:56:57.328Z,7.17
